< < Back
Terminal Aerodrome Forecast


Current Version              Previous Versions:   1  2  3  4  5  6  7  8  9  

Terminal Aerodrome Forecast

397
FTUS44 KBMX 300520
TAFANB
TAF
KANB 300520Z 3006/3106 00000KT P6SM SCT250
      TEMPO 3011/3012 4SM BR
     FM301500 03006KT P6SM SCT040 SCT200
     FM301900 35010KT P6SM SCT200=



Latest METAR

430
SAUS70 KWBC 300600 RRK
MTRANB
METAR KANB 300553Z AUTO 00000KT 9SM CLR 26/23 A3001 RMK AO2 SLP150
T02560233 10317 20256 403500228 50001


USA.gov is the U.S. government's official web portal to all federal, state and local government web resources and services.